Time;durP1;ratioP1;P1;durP2;ratioP2;P2;SDS_P1;SDS_P2;PMS_P1;PMS_P2;Temp;Humidity;BMP_temperature;BMP_pressure;BME280_temperature;BME280_humidity;BME280_pressure;Samples;Min_cycle;Max_cycle;Signal;HPM_P1;HPM_P2
2021/12/19 00:01:48;;;;;;;0.50;0.50;;;;;;;0.27;99.82;98737.88;5036136;28;20513;-77
2021/12/19 00:09:34;;;;;;;1.17;0.70;;;;;;;0.28;99.49;98734.09;5048932;28;20094;-78
2021/12/19 00:12:00;;;;;;;0.80;0.55;;;;;;;0.29;99.40;98737.59;5031818;28;20033;-78
2021/12/19 00:14:26;;;;;;;1.90;0.77;;;;;;;0.29;99.34;98729.50;5051113;28;20037;-78
2021/12/19 00:16:53;;;;;;;0.88;0.60;;;;;;;0.29;99.33;98738.41;5062440;28;20061;-78
2021/12/19 00:19:19;;;;;;;0.55;0.47;;;;;;;0.27;99.14;98731.66;5058143;28;20041;-78
2021/12/19 00:21:45;;;;;;;0.98;0.60;;;;;;;0.27;99.28;98726.28;5055502;28;20086;-78
2021/12/19 00:24:11;;;;;;;0.85;0.50;;;;;;;0.27;99.18;98721.69;5028577;28;20037;-78
2021/12/19 00:26:37;;;;;;;0.88;0.50;;;;;;;0.31;99.15;98716.56;5057740;28;20066;-78
2021/12/19 00:29:03;;;;;;;0.73;0.60;;;;;;;0.34;99.12;98715.22;5048803;28;20516;-78
2021/12/19 00:31:30;;;;;;;0.40;0.40;;;;;;;0.33;99.15;98711.72;5026209;28;20045;-78
2021/12/19 00:33:56;;;;;;;0.57;0.50;;;;;;;0.32;99.08;98715.50;5035190;28;20043;-77
2021/12/19 00:36:22;;;;;;;1.55;0.70;;;;;;;0.30;99.19;98710.38;5052771;28;20044;-78
2021/12/19 00:38:47;;;;;;;1.30;0.50;;;;;;;0.27;99.18;98705.50;5042073;28;20033;-78
2021/12/19 00:41:13;;;;;;;1.58;0.70;;;;;;;0.26;99.37;98694.97;5042198;28;20033;-77
2021/12/19 00:46:08;;;;;;;1.50;0.67;;;;;;;0.26;99.07;98697.66;5061288;28;20029;-78
2021/12/19 00:48:35;;;;;;;0.82;0.60;;;;;;;0.23;99.18;98692.81;5053314;28;20041;-77
2021/12/19 00:51:02;;;;;;;2.08;0.70;;;;;;;0.25;99.37;98686.06;5043566;28;20503;-77
2021/12/19 00:53:27;;;;;;;1.83;0.80;;;;;;;0.26;99.07;98684.19;5047665;28;20049;-77
2021/12/19 00:55:53;;;;;;;1.17;0.47;;;;;;;0.28;99.27;98684.72;5054665;28;20037;-78
2021/12/19 00:58:19;;;;;;;0.80;0.50;;;;;;;0.28;99.01;98682.84;5055093;28;20045;-78
2021/12/19 01:00:45;;;;;;;1.30;0.70;;;;;;;0.31;99.09;98673.41;5061724;28;20045;-78
2021/12/19 01:03:11;;;;;;;1.23;1.02;;;;;;;0.29;99.17;98695.25;5033195;28;20064;-78
2021/12/19 01:05:38;;;;;;;0.60;0.60;;;;;;;0.25;99.33;98691.47;5035999;28;20037;-77
2021/12/19 01:08:05;;;;;;;1.55;0.60;;;;;;;0.22;99.24;98678.50;5049449;28;20423;-77
2021/12/19 01:10:30;;;;;;;0.52;0.52;;;;;;;0.21;99.18;98679.59;5043190;28;20132;-77
2021/12/19 01:12:56;;;;;;;0.47;0.32;;;;;;;0.20;99.29;98679.84;5037079;28;20141;-77
2021/12/19 01:15:22;;;;;;;0.40;0.40;;;;;;;0.19;99.12;98676.34;5048522;28;20045;-78
2021/12/19 01:17:49;;;;;;;0.40;0.40;;;;;;;0.18;99.14;98682.81;5045088;28;20037;-77
2021/12/19 01:20:18;;;;;;;1.02;0.40;;;;;;;0.18;99.07;98674.72;5054708;28;20056;-75
2021/12/19 01:22:45;;;;;;;0.77;0.40;;;;;;;0.17;99.04;98678.47;5049288;28;20120;-75
2021/12/19 01:25:11;;;;;;;0.50;0.40;;;;;;;0.15;99.27;98675.22;5041891;28;20114;-76
2021/12/19 01:27:37;;;;;;;1.42;0.47;;;;;;;0.15;98.85;98675.22;5067720;28;20037;-78
2021/12/19 01:30:04;;;;;;;0.57;0.57;;;;;;;0.11;99.03;98657.94;5048695;28;20045;-76
2021/12/19 01:32:30;;;;;;;1.23;0.40;;;;;;;0.11;98.88;98673.31;5059027;28;20441;-76
2021/12/19 01:34:55;;;;;;;0.85;0.45;;;;;;;0.16;98.93;98663.34;5055907;28;20045;-76
2021/12/19 01:37:21;;;;;;;1.50;0.40;;;;;;;0.16;99.00;98655.25;5062770;28;20072;-76
2021/12/19 01:39:47;;;;;;;0.60;0.60;;;;;;;0.15;98.83;98653.63;5058613;28;20398;-76
2021/12/19 01:42:13;;;;;;;0.55;0.40;;;;;;;0.15;99.08;98648.25;5050089;28;20099;-75
2021/12/19 01:44:38;;;;;;;1.38;0.43;;;;;;;0.16;98.90;98644.47;5043682;28;20045;-75
2021/12/19 01:47:05;;;;;;;2.05;0.60;;;;;;;0.17;99.10;98643.41;5050866;28;20045;-76
2021/12/19 01:49:30;;;;;;;0.55;0.55;;;;;;;0.20;99.03;98634.81;5048782;28;20491;-76
2021/12/19 01:51:56;;;;;;;0.45;0.40;;;;;;;0.23;98.99;98645.06;5032603;28;20048;-76
2021/12/19 01:54:22;;;;;;;1.80;0.50;;;;;;;0.23;99.05;98633.47;5037741;28;20060;-76
2021/12/19 01:56:47;;;;;;;0.90;0.40;;;;;;;0.22;99.00;98632.66;5050221;28;20037;-76
2021/12/19 01:59:13;;;;;;;1.05;0.50;;;;;;;0.21;99.01;98631.03;5042513;28;20038;-75
2021/12/19 02:01:51;;;;;;;0.40;0.40;;;;;;;0.20;98.89;98626.72;5048089;28;20063;-75
2021/12/19 02:04:18;;;;;;;0.38;0.38;;;;;;;0.22;98.73;98621.88;5052177;28;20040;-75
2021/12/19 02:06:44;;;;;;;1.92;0.50;;;;;;;0.25;98.98;98623.22;5069274;28;20430;-75
2021/12/19 02:09:10;;;;;;;0.63;0.40;;;;;;;0.27;98.92;98624.56;5040440;28;20042;-75
2021/12/19 02:11:38;;;;;;;0.45;0.40;;;;;;;0.24;98.97;98622.41;5053214;28;20495;-76
2021/12/19 02:14:04;;;;;;;0.73;0.60;;;;;;;0.20;98.86;98626.72;5040118;28;20061;-76
2021/12/19 02:16:30;;;;;;;1.88;0.60;;;;;;;0.19;99.11;98622.41;5069490;28;20083;-77
2021/12/19 02:18:57;;;;;;;0.57;0.40;;;;;;;0.18;99.00;98617.28;5042059;28;20123;-76
2021/12/19 02:21:23;;;;;;;0.47;0.40;;;;;;;0.17;99.10;98621.00;5034818;28;20083;-76
2021/12/19 02:23:48;;;;;;;0.50;0.50;;;;;;;0.15;99.11;98612.38;5044336;28;20561;-76
2021/12/19 02:26:15;;;;;;;1.60;0.77;;;;;;;0.16;99.05;98601.31;5060479;28;20122;-76
2021/12/19 02:28:41;;;;;;;1.17;0.30;;;;;;;0.19;99.23;98605.41;5036027;28;20098;-76
2021/12/19 02:31:06;;;;;;;0.90;0.50;;;;;;;0.21;99.14;98604.06;5038047;28;20033;-76
2021/12/19 02:33:37;;;;;;;0.63;0.50;;;;;;;0.18;99.02;98606.47;5065857;28;20127;-76
2021/12/19 02:49:40;;;;;;;1.35;0.60;;;;;;;0.10;99.02;98591.59;5060997;28;20041;-77
2021/12/19 02:52:14;;;;;;;0.50;0.50;;;;;;;0.10;99.17;98593.50;5054758;28;20044;-77
2021/12/19 02:54:40;;;;;;;0.93;0.50;;;;;;;0.12;99.15;98585.94;5041181;28;20033;-76
2021/12/19 02:57:05;;;;;;;1.98;0.60;;;;;;;0.13;99.18;98582.97;5042065;28;20052;-76
2021/12/19 02:59:32;;;;;;;1.15;0.50;;;;;;;0.12;99.37;98585.94;5044776;28;20030;-76
2021/12/19 03:01:58;;;;;;;0.75;0.32;;;;;;;0.10;99.16;98577.31;5035674;28;20037;-76
2021/12/19 03:04:23;;;;;;;1.10;0.43;;;;;;;0.12;99.34;98573.28;5039098;28;20124;-76
2021/12/19 03:06:49;;;;;;;1.15;0.40;;;;;;;0.13;99.34;98571.38;5044275;28;20090;-76
2021/12/19 03:09:30;;;;;;;1.15;0.38;;;;;;;0.10;99.35;98561.94;5054799;28;20045;-75
2021/12/19 03:20:03;;;;;;;0.45;0.45;;;;;;;0.04;99.12;98552.22;5054347;28;20036;-76
2021/12/19 03:22:28;;;;;;;0.35;0.30;;;;;;;0.04;99.21;98543.31;5042805;28;20087;-76
2021/12/19 03:24:54;;;;;;;0.52;0.30;;;;;;;0.03;99.30;98547.09;5041235;28;20599;-77
2021/12/19 03:27:19;;;;;;;0.30;0.30;;;;;;;0.01;99.32;98549.25;5064771;28;20184;-76
2021/12/19 03:29:45;;;;;;;0.70;0.45;;;;;;;0.02;99.31;98550.88;5048274;28;20119;-75
2021/12/19 03:32:11;;;;;;;0.50;0.50;;;;;;;0.01;99.30;98539.28;5050466;28;20127;-76
2021/12/19 03:34:36;;;;;;;0.45;0.40;;;;;;;-0.01;99.37;98542.19;5049700;28;20056;-76
2021/12/19 03:37:02;;;;;;;0.68;0.40;;;;;;;0.01;99.17;98536.56;5060456;28;20227;-76
2021/12/19 03:39:37;;;;;;;0.40;0.35;;;;;;;0.02;99.26;98534.69;5028556;28;20488;-76
2021/12/19 03:42:04;;;;;;;0.40;0.40;;;;;;;0.01;99.16;98525.78;5053255;28;20098;-76
2021/12/19 03:44:30;;;;;;;0.40;0.40;;;;;;;0.00;99.29;98521.47;5059148;28;20055;-76
2021/12/19 03:46:55;;;;;;;0.75;0.40;;;;;;;-0.03;99.32;98525.47;5056630;28;20407;-75
2021/12/19 03:49:21;;;;;;;0.70;0.50;;;;;;;-0.03;99.25;98513.88;5037184;28;20041;-77
2021/12/19 03:51:48;;;;;;;0.47;0.47;;;;;;;-0.03;99.09;98511.19;5023050;28;20123;-77
2021/12/19 03:54:13;;;;;;;0.50;0.40;;;;;;;-0.03;99.04;98506.59;5062162;28;20029;-77
2021/12/19 03:57:04;;;;;;;0.65;0.40;;;;;;;-0.02;99.28;98515.50;5049919;28;20124;-77
2021/12/19 03:59:31;;;;;;;1.35;0.82;;;;;;;0.01;99.05;98511.50;5052739;28;20132;-77
2021/12/19 04:01:57;;;;;;;0.68;0.30;;;;;;;0.01;98.89;98504.22;5051062;28;20032;-78
2021/12/19 04:04:22;;;;;;;1.00;0.40;;;;;;;0.02;98.98;98495.06;5037131;28;20041;-76
2021/12/19 04:06:48;;;;;;;0.40;0.40;;;;;;;0.03;98.93;98499.38;5054888;28;20414;-76
2021/12/19 04:09:14;;;;;;;0.50;0.50;;;;;;;0.03;98.98;98499.38;5047055;28;20071;-76
2021/12/19 04:11:39;;;;;;;0.50;0.50;;;;;;;0.05;98.97;98497.22;5045691;28;20066;-76
2021/12/19 04:14:05;;;;;;;0.70;0.50;;;;;;;0.07;98.94;98495.06;5044823;28;20432;-76
2021/12/19 04:16:31;;;;;;;1.02;0.50;;;;;;;0.05;98.89;98494.53;5054136;28;20065;-76
2021/12/19 04:18:56;;;;;;;0.95;0.40;;;;;;;0.04;98.73;98490.22;5047784;28;20032;-76
2021/12/19 04:21:22;;;;;;;0.63;0.35;;;;;;;0.05;98.65;98491.81;5041486;28;20040;-77
2021/12/19 04:23:48;;;;;;;0.65;0.65;;;;;;;0.08;98.67;98491.28;5051300;28;20094;-76
2021/12/19 04:26:13;;;;;;;1.13;0.70;;;;;;;0.07;98.72;98492.38;5049151;28;20514;-76
2021/12/19 04:28:39;;;;;;;1.13;0.60;;;;;;;0.04;98.55;98494.78;5050394;28;20052;-76
2021/12/19 04:31:05;;;;;;;1.35;0.82;;;;;;;0.06;98.31;98487.25;5052070;28;20072;-76
2021/12/19 04:33:33;;;;;;;1.05;0.65;;;;;;;0.03;98.50;98488.59;5040715;28;20614;-76
2021/12/19 04:36:02;;;;;;;0.93;0.47;;;;;;;0.05;98.27;98494.53;5052689;28;20068;-76
2021/12/19 04:57:47;;;;;;;1.35;0.73;;;;;;;0.07;97.11;98508.53;5050067;28;20098;-76
2021/12/19 05:00:19;;;;;;;2.28;0.85;;;;;;;0.09;97.33;98509.09;5052458;28;20035;-76
2021/12/19 05:02:56;;;;;;;1.30;0.85;;;;;;;0.09;97.53;98532.53;5053555;28;20072;-76
2021/12/19 05:16:21;;;;;;;1.67;0.50;;;;;;;-0.75;96.97;98539.66;5059362;28;20056;-77
2021/12/19 05:18:49;;;;;;;0.40;0.40;;;;;;;-0.81;97.00;98535.31;5049987;28;20033;-78
2021/12/19 05:21:22;;;;;;;0.65;0.45;;;;;;;-0.84;97.08;98548.50;5037688;28;20033;-76
2021/12/19 05:26:16;;;;;;;0.40;0.40;;;;;;;-0.91;97.23;98548.69;5053252;28;20047;-75
2021/12/19 05:28:42;;;;;;;0.68;0.30;;;;;;;-0.88;96.87;98547.34;5045555;28;20057;-77
2021/12/19 05:31:08;;;;;;;1.55;0.40;;;;;;;-0.87;96.73;98559.75;5033926;28;20128;-77
2021/12/19 05:33:34;;;;;;;0.40;0.40;;;;;;;-0.88;96.27;98547.34;5041345;28;20128;-77
2021/12/19 05:46:43;;;;;;;0.43;0.43;;;;;;;-0.91;96.28;98559.47;5061581;28;20044;-77
2021/12/19 05:49:09;;;;;;;0.30;0.30;;;;;;;-0.92;96.29;98558.66;5045735;28;20085;-77
2021/12/19 05:51:36;;;;;;;0.35;0.35;;;;;;;-0.93;96.35;98567.78;5050173;28;20037;-77
2021/12/19 05:54:02;;;;;;;0.20;0.20;;;;;;;-0.94;96.36;98571.56;5048243;28;20118;-77
2021/12/19 05:56:28;;;;;;;0.55;0.38;;;;;;;-0.88;95.96;98568.91;5055918;28;20033;-76
2021/12/19 05:58:55;;;;;;;0.80;0.50;;;;;;;-0.88;96.24;98571.59;5046951;28;20041;-77
2021/12/19 06:01:20;;;;;;;0.40;0.40;;;;;;;-0.88;96.20;98572.41;5042052;28;20038;-77
2021/12/19 06:03:46;;;;;;;0.30;0.30;;;;;;;-0.88;96.29;98576.97;5047456;28;20127;-76
2021/12/19 06:06:12;;;;;;;0.40;0.40;;;;;;;-0.87;95.97;98573.22;5066573;28;20036;-75
2021/12/19 06:08:37;;;;;;;0.85;0.45;;;;;;;-0.89;95.64;98578.03;5052977;28;20049;-76
2021/12/19 06:11:03;;;;;;;0.40;0.40;;;;;;;-0.92;95.40;98574.81;5059701;28;20044;-76
2021/12/19 06:13:29;;;;;;;0.22;0.22;;;;;;;-0.94;95.14;98586.91;5050803;28;20445;-76
2021/12/19 06:15:56;;;;;;;0.50;0.50;;;;;;;-0.95;94.82;98586.09;5071978;28;20048;-77
2021/12/19 06:18:23;;;;;;;0.40;0.40;;;;;;;-0.95;94.52;98586.09;5049027;28;20499;-77
2021/12/19 06:20:48;;;;;;;0.45;0.45;;;;;;;-0.97;94.50;98595.50;5047427;28;20078;-77
2021/12/19 06:23:14;;;;;;;0.80;0.40;;;;;;;-0.96;94.33;98600.63;5049180;28;20038;-77
2021/12/19 06:25:46;;;;;;;0.50;0.50;;;;;;;-0.98;94.31;98600.06;5058199;28;20066;-77
2021/12/19 06:28:16;;;;;;;0.40;0.38;;;;;;;-0.96;94.30;98589.84;5048786;28;20063;-77
2021/12/19 06:30:42;;;;;;;1.00;0.40;;;;;;;-0.97;94.32;98585.53;5045692;28;20083;-77
2021/12/19 06:33:08;;;;;;;0.57;0.57;;;;;;;-0.95;94.25;98590.66;5047676;28;20037;-78
2021/12/19 06:35:34;;;;;;;0.85;0.47;;;;;;;-0.99;93.99;98594.94;5058745;28;20029;-77
2021/12/19 06:37:59;;;;;;;1.45;0.50;;;;;;;-0.98;93.52;98599.25;5035787;28;20387;-77
2021/12/19 06:40:25;;;;;;;0.30;0.28;;;;;;;-0.98;93.47;98599.25;5046974;28;20040;-78
2021/12/19 06:42:51;;;;;;;0.28;0.28;;;;;;;-0.98;93.45;98612.72;5038051;28;20034;-77
2021/12/19 06:45:18;;;;;;;0.52;0.52;;;;;;;-0.95;93.23;98609.50;5037621;28;20033;-77
2021/12/19 06:47:43;;;;;;;0.65;0.60;;;;;;;-0.95;92.84;98618.38;5058551;28;20073;-77
2021/12/19 06:50:10;;;;;;;1.00;0.30;;;;;;;-0.98;93.45;98618.09;5039973;28;20207;-77
2021/12/19 06:52:37;;;;;;;1.92;0.60;;;;;;;-1.01;93.35;98627.50;5062987;28;20106;-76
2021/12/19 06:55:03;;;;;;;1.27;0.40;;;;;;;-1.08;93.56;98634.94;5063774;28;20029;-77
2021/12/19 06:57:29;;;;;;;1.60;0.70;;;;;;;-1.17;93.68;98631.09;5048951;28;20071;-76
2021/12/19 06:59:54;;;;;;;0.50;0.43;;;;;;;-1.22;94.18;98637.22;5047339;28;20064;-76
2021/12/19 07:02:20;;;;;;;0.82;0.40;;;;;;;-1.19;94.53;98643.19;5051942;28;20179;-76
2021/12/19 07:04:46;;;;;;;0.63;0.57;;;;;;;-1.21;94.91;98643.44;5042491;28;20137;-77
2021/12/19 07:07:12;;;;;;;1.15;0.80;;;;;;;-1.23;95.07;98649.06;5043982;28;20423;-77
2021/12/19 07:09:38;;;;;;;2.25;1.10;;;;;;;-1.22;95.30;98657.94;5047753;28;20506;-77
2021/12/19 07:12:05;;;;;;;1.45;0.68;;;;;;;-1.28;94.74;98656.28;5065581;28;20036;-77
2021/12/19 07:14:31;;;;;;;0.95;0.70;;;;;;;-1.30;94.76;98647.66;5055560;28;20139;-77
2021/12/19 07:16:57;;;;;;;1.92;0.70;;;;;;;-1.32;94.62;98653.28;5043984;28;20123;-77
2021/12/19 07:19:23;;;;;;;1.45;0.88;;;;;;;-1.38;94.14;98667.75;5040113;28;20048;-78
2021/12/19 07:21:48;;;;;;;2.13;1.30;;;;;;;-1.43;93.87;98664.16;5036078;28;20457;-77
2021/12/19 07:24:14;;;;;;;0.68;0.68;;;;;;;-1.49;93.60;98670.56;5035394;28;20466;-77
2021/12/19 07:26:39;;;;;;;1.35;0.90;;;;;;;-1.49;93.46;98668.69;5040243;28;20041;-77
2021/12/19 07:29:05;;;;;;;1.05;0.70;;;;;;;-1.45;93.03;98669.81;5049298;28;20037;-77
2021/12/19 07:31:33;;;;;;;1.67;0.77;;;;;;;-1.49;92.89;98676.75;5040682;28;20559;-77
2021/12/19 07:33:59;;;;;;;1.92;0.60;;;;;;;-1.51;92.81;98670.81;5059048;28;20089;-76
2021/12/19 07:36:29;;;;;;;1.25;0.80;;;;;;;-1.60;92.63;98675.81;5060990;28;20044;-77
2021/12/19 07:39:06;;;;;;;0.85;0.80;;;;;;;-1.65;92.72;98686.50;5057900;28;20052;-74
2021/12/19 07:41:31;;;;;;;0.70;0.52;;;;;;;-1.68;92.92;98683.50;5067857;28;20047;-75
2021/12/19 07:43:57;;;;;;;1.08;0.70;;;;;;;-1.67;92.90;98691.34;5055931;28;20032;-76
2021/12/19 07:46:22;;;;;;;1.00;0.75;;;;;;;-1.65;92.95;98689.19;5062624;28;20498;-76
2021/12/19 07:48:48;;;;;;;1.08;0.98;;;;;;;-1.70;92.99;98675.69;5049463;28;20068;-76
2021/12/19 07:51:14;;;;;;;1.02;0.93;;;;;;;-1.74;93.22;98690.69;5032895;28;20036;-76
2021/12/19 07:53:39;;;;;;;1.45;1.10;;;;;;;-1.71;93.19;98684.84;5047087;28;20033;-75
2021/12/19 07:56:05;;;;;;;1.15;1.02;;;;;;;-1.70;93.19;98694.53;5052345;28;20154;-76
2021/12/19 07:58:31;;;;;;;1.83;1.30;;;;;;;-1.68;93.15;98699.66;5039008;28;20037;-78
2021/12/19 08:00:56;;;;;;;1.60;1.20;;;;;;;-1.67;93.33;98699.41;5055180;28;20037;-77
2021/12/19 08:03:22;;;;;;;1.27;1.10;;;;;;;-1.66;93.24;98708.28;5039792;28;20056;-77
2021/12/19 08:05:48;;;;;;;1.60;1.25;;;;;;;-1.63;93.09;98703.22;5051888;28;20037;-76
2021/12/19 08:08:17;;;;;;;2.53;1.42;;;;;;;-1.63;93.26;98711.28;5048494;28;20037;-78
2021/12/19 08:13:09;;;;;;;1.52;1.17;;;;;;;-1.86;92.06;98719.56;5022805;28;20034;-78
2021/12/19 08:15:37;;;;;;;1.48;1.00;;;;;;;-1.94;92.24;98718.09;5033610;28;20588;-80
2021/12/19 08:18:04;;;;;;;1.40;1.10;;;;;;;-1.97;92.47;98723.16;5054189;28;20043;-79
2021/12/19 08:20:29;;;;;;;1.83;1.30;;;;;;;-1.98;92.56;98737.66;5043861;28;20189;-78
2021/12/19 08:22:56;;;;;;;1.73;1.10;;;;;;;-2.03;92.98;98730.34;5049116;28;20491;-78
2021/12/19 08:25:23;;;;;;;1.85;1.25;;;;;;;-2.07;93.06;98734.59;5049265;28;20033;-77
2021/12/19 08:27:48;;;;;;;1.60;1.38;;;;;;;-2.07;93.25;98726.53;5063900;28;20479;-78
2021/12/19 08:30:15;;;;;;;1.60;1.40;;;;;;;-2.02;93.42;98737.34;5058582;28;20491;-78
2021/12/19 08:32:42;;;;;;;1.55;1.45;;;;;;;-2.01;93.71;98748.91;5057835;28;20124;-78
2021/12/19 08:35:09;;;;;;;1.45;1.35;;;;;;;-2.04;93.84;98746.72;5059885;28;20095;-77
2021/12/19 08:37:34;;;;;;;1.80;1.17;;;;;;;-2.08;93.78;98750.94;5065436;28;20032;-77
2021/12/19 08:40:00;;;;;;;1.45;1.17;;;;;;;-2.09;93.72;98741.25;5055372;28;20048;-77
2021/12/19 08:42:28;;;;;;;2.65;1.70;;;;;;;-2.12;93.84;98748.75;5070520;28;20048;-77
2021/12/19 08:44:54;;;;;;;1.85;1.40;;;;;;;-2.11;94.09;98765.69;5052703;28;20041;-76
2021/12/19 08:47:19;;;;;;;2.25;1.30;;;;;;;-2.09;94.05;98746.63;5069721;28;20037;-77
2021/12/19 08:49:45;;;;;;;1.95;1.33;;;;;;;-2.08;93.66;98753.63;5054307;28;20043;-76
2021/12/19 08:52:11;;;;;;;2.78;1.20;;;;;;;-2.08;93.11;98770.59;5062047;28;20037;-76
2021/12/19 08:54:37;;;;;;;1.48;1.17;;;;;;;-2.09;92.77;98752.81;5060144;28;20055;-76
2021/12/19 08:57:03;;;;;;;2.75;1.50;;;;;;;-2.09;92.22;98771.63;5051489;28;20041;-77
2021/12/19 08:59:29;;;;;;;3.78;1.10;;;;;;;-2.10;91.71;98766.50;5066963;28;20047;-76
2021/12/19 09:01:58;;;;;;;1.23;0.98;;;;;;;-2.10;91.86;98766.50;5054295;28;20036;-76
2021/12/19 09:04:24;;;;;;;1.92;1.33;;;;;;;-2.09;91.63;98768.13;5043068;28;20033;-77
2021/12/19 09:06:49;;;;;;;1.10;1.00;;;;;;;-2.09;92.04;98789.63;5061961;28;20066;-77
2021/12/19 09:09:15;;;;;;;2.05;1.20;;;;;;;-2.06;92.24;98781.09;5052233;28;20044;-77
2021/12/19 09:11:42;;;;;;;1.70;1.20;;;;;;;-2.12;92.25;98782.84;5064979;28;20568;-77
2021/12/19 09:14:07;;;;;;;1.60;1.02;;;;;;;-2.14;92.43;98782.28;5048051;28;20063;-77
2021/12/19 09:16:33;;;;;;;1.30;1.00;;;;;;;-2.13;92.87;98795.47;5060337;28;20511;-77
2021/12/19 09:18:58;;;;;;;1.23;0.90;;;;;;;-2.13;92.68;98784.72;5068058;28;20037;-77
2021/12/19 09:21:24;;;;;;;1.77;1.20;;;;;;;-2.13;92.52;98792.78;5057483;28;20132;-78
2021/12/19 09:23:50;;;;;;;1.63;1.10;;;;;;;-2.14;92.27;98801.91;5062089;28;20507;-77
2021/12/19 09:26:16;;;;;;;1.13;1.02;;;;;;;-2.09;91.91;98792.31;5065398;28;20509;-78
2021/12/19 09:28:41;;;;;;;1.27;1.10;;;;;;;-2.07;91.85;98803.66;5064194;28;20051;-77
2021/12/19 09:31:07;;;;;;;1.45;1.08;;;;;;;-2.09;91.59;98798.50;5047958;28;20053;-78
2021/12/19 09:33:33;;;;;;;1.10;1.00;;;;;;;-2.10;91.52;98798.72;5069027;28;20032;-78
2021/12/19 09:35:59;;;;;;;1.58;1.20;;;;;;;-2.09;91.37;98801.19;5059689;28;20509;-78
2021/12/19 09:38:25;;;;;;;1.67;1.30;;;;;;;-2.09;91.53;98803.06;5063876;28;20047;-78
2021/12/19 09:40:58;;;;;;;2.40;1.27;;;;;;;-2.09;91.76;98797.69;5066439;28;20062;-77
2021/12/19 09:43:43;;;;;;;3.05;1.48;;;;;;;-2.05;91.83;98794.28;5056654;28;20037;-78
2021/12/19 09:46:14;;;;;;;4.18;1.65;;;;;;;-2.02;92.22;98792.97;5066284;28;20037;-77
2021/12/19 09:48:41;;;;;;;3.58;2.10;;;;;;;-2.04;92.56;98803.16;5052990;28;20096;-78
2021/12/19 09:51:08;;;;;;;2.60;1.50;;;;;;;-2.01;92.02;98813.41;5068652;28;20074;-78
2021/12/19 09:53:34;;;;;;;1.60;1.40;;;;;;;-2.03;92.33;98800.22;5055658;28;20087;-78
2021/12/19 09:56:00;;;;;;;1.95;1.40;;;;;;;-2.03;92.41;98794.03;5065093;28;20036;-78
2021/12/19 09:58:26;;;;;;;2.45;1.92;;;;;;;-2.01;92.22;98799.97;5062317;28;20123;-78
2021/12/19 10:00:53;;;;;;;3.00;1.80;;;;;;;-2.01;92.13;98805.34;5066570;28;20048;-78
2021/12/19 10:03:24;;;;;;;2.20;1.20;;;;;;;-2.02;91.84;98806.41;5055169;28;20044;-78
2021/12/19 10:05:50;;;;;;;2.33;1.20;;;;;;;-2.01;91.31;98808.84;5064813;28;20037;-78
2021/12/19 10:08:23;;;;;;;1.83;1.42;;;;;;;-1.99;91.01;98822.03;5059327;28;20202;-79
2021/12/19 10:10:58;;;;;;;1.77;1.25;;;;;;;-2.01;90.87;98811.53;5058798;28;20518;-79
2021/12/19 10:13:35;;;;;;;2.03;1.40;;;;;;;-2.05;90.68;98848.03;5067936;28;20044;-79
2021/12/19 10:16:02;;;;;;;1.55;1.00;;;;;;;-2.20;90.85;98826.25;5040977;28;20519;-78
2021/12/19 10:18:27;;;;;;;1.10;1.00;;;;;;;-2.29;91.59;98831.19;5044998;28;20045;-79
2021/12/19 10:20:59;;;;;;;1.23;1.00;;;;;;;-2.36;91.98;98832.44;5044618;28;20040;-78
2021/12/19 10:23:28;;;;;;;1.17;1.08;;;;;;;-2.51;92.32;98838.34;5064295;28;20115;-78
2021/12/19 10:26:02;;;;;;;1.08;0.82;;;;;;;-2.58;92.60;98833.13;5041665;28;20028;-78
2021/12/19 10:28:30;;;;;;;1.20;0.90;;;;;;;-2.62;92.92;98836.50;5061876;28;20044;-78
2021/12/19 10:30:57;;;;;;;0.65;0.65;;;;;;;-2.57;93.10;98833.94;5066535;28;20070;-78
2021/12/19 10:33:26;;;;;;;1.63;1.00;;;;;;;-2.52;92.89;98844.75;5055815;28;20037;-78
2021/12/19 10:35:56;;;;;;;;;;;;;;;-2.51;92.89;98847.19;5068050;28;20090;-77
2021/12/19 10:38:36;;;;;;;1.73;1.13;;;;;;;-2.48;92.88;98854.78;5030582;28;20453;-78
2021/12/19 10:41:13;;;;;;;1.17;0.80;;;;;;;-2.46;92.10;98860.72;5048835;28;20044;-78
2021/12/19 10:43:56;;;;;;;1.05;0.80;;;;;;;-2.49;91.20;98855.81;5053127;28;20079;-77
2021/12/19 10:46:29;;;;;;;1.90;1.42;;;;;;;-2.44;90.64;98858.59;5049852;28;20098;-78
2021/12/19 10:48:56;;;;;;;1.88;1.10;;;;;;;-2.38;90.80;98858.72;5064661;28;20550;-77
2021/12/19 10:51:21;;;;;;;1.58;1.00;;;;;;;-2.39;90.41;98870.50;5054008;28;20530;-78
2021/12/19 10:53:52;;;;;;;1.77;0.95;;;;;;;-2.38;90.19;98867.59;5067731;28;20068;-78
2021/12/19 10:56:21;;;;;;;0.82;0.80;;;;;;;-2.40;89.80;98885.81;5053782;28;20093;-78
2021/12/19 10:58:55;;;;;;;1.60;1.10;;;;;;;-2.43;89.51;98875.53;5063390;28;20127;-78
2021/12/19 11:01:22;;;;;;;1.60;0.80;;;;;;;-2.46;88.98;98889.44;5055289;28;20107;-77
2021/12/19 11:04:11;;;;;;;0.98;0.60;;;;;;;-2.47;88.91;98877.06;5067799;28;20133;-79
2021/12/19 11:06:38;;;;;;;;;;;;;;;-2.52;89.05;98888.53;5063142;28;20190;-78
2021/12/19 11:09:10;;;;;;;0.47;0.47;;;;;;;-2.53;88.96;98892.28;5056801;28;19921;-78
2021/12/19 11:11:42;;;;;;;0.68;0.68;;;;;;;-2.54;89.15;98897.88;5068106;28;20129;-78
2021/12/19 11:14:17;;;;;;;0.68;0.60;;;;;;;-2.58;89.38;98894.06;5064432;28;20546;-77
2021/12/19 11:16:43;;;;;;;1.17;0.70;;;;;;;-2.62;89.22;98904.44;5063473;28;20123;-78
2021/12/19 11:19:10;;;;;;;1.08;0.80;;;;;;;-2.65;89.40;98906.78;5056153;28;20037;-77
2021/12/19 11:21:37;;;;;;;1.52;0.82;;;;;;;-2.66;89.53;98913.22;5050164;28;20524;-78
2021/12/19 11:24:05;;;;;;;1.10;0.77;;;;;;;-2.65;89.43;98917.53;5058240;28;20044;-78
2021/12/19 11:26:31;;;;;;;1.55;1.00;;;;;;;-2.68;89.33;98905.41;5060043;28;20535;-79
2021/12/19 11:28:57;;;;;;;2.20;1.20;;;;;;;-2.66;89.45;98922.06;5065444;28;20047;-79
2021/12/19 11:31:27;;;;;;;2.15;1.15;;;;;;;-2.69;89.39;98929.81;5053818;28;20044;-79
2021/12/19 11:34:10;;;;;;;1.52;0.80;;;;;;;-2.74;89.00;98917.09;5060945;28;20063;-76
2021/12/19 11:36:39;;;;;;;4.60;1.38;;;;;;;-2.76;88.47;98927.25;5057684;28;20033;-76
2021/12/19 11:39:05;;;;;;;;;;;;;;;-2.79;88.33;98925.84;5034266;28;20541;-78
2021/12/19 11:41:35;;;;;;;2.05;0.88;;;;;;;-2.81;88.55;98919.88;5065621;28;20480;-77
2021/12/19 11:44:06;;;;;;;5.75;0.98;;;;;;;-2.80;88.80;98937.63;5056051;28;20597;-77
2021/12/19 11:46:52;;;;;;;2.67;0.80;;;;;;;-2.82;88.75;98937.03;5060796;28;20048;-76
2021/12/19 11:49:22;;;;;;;2.05;1.02;;;;;;;-2.87;89.19;98950.38;5067978;28;20044;-77
2021/12/19 11:51:48;;;;;;;1.67;0.90;;;;;;;-2.94;89.35;98951.56;5055713;28;20047;-77
2021/12/19 11:54:16;;;;;;;1.48;0.82;;;;;;;-3.02;89.56;98936.63;5063321;28;20029;-77
2021/12/19 11:57:11;;;;;;;1.75;1.30;;;;;;;-3.00;89.28;98953.28;5063111;28;20119;-77
2021/12/19 11:59:38;;;;;;;1.10;0.60;;;;;;;-3.06;88.90;98946.19;5048022;28;20462;-78
2021/12/19 12:02:25;;;;;;;1.15;0.82;;;;;;;-3.07;89.00;98957.97;5046698;28;20170;-78
2021/12/19 12:05:15;;;;;;;0.60;0.60;;;;;;;-3.09;88.63;98968.13;5045851;28;20056;-78
2021/12/19 12:08:02;;;;;;;1.90;0.80;;;;;;;-3.12;88.51;98957.88;5052270;28;20045;-78
2021/12/19 12:10:29;;;;;;;2.30;1.00;;;;;;;-3.14;88.63;98968.81;5060600;28;20036;-78
2021/12/19 12:12:54;;;;;;;1.33;0.90;;;;;;;-3.17;88.56;98973.81;5057537;28;20041;-78
2021/12/19 12:15:32;;;;;;;1.05;0.70;;;;;;;-3.20;88.54;98966.25;5065652;28;20152;-78
2021/12/19 12:17:59;;;;;;;1.35;0.70;;;;;;;-3.22;88.41;98971.84;5056625;28;20028;-78
2021/12/19 12:20:30;;;;;;;2.00;0.93;;;;;;;-3.24;88.42;98976.63;5056293;28;20048;-77
2021/12/19 12:22:58;;;;;;;1.88;0.73;;;;;;;-3.27;88.58;98987.81;5055968;28;20044;-77
2021/12/19 12:25:24;;;;;;;1.05;0.90;;;;;;;-3.29;88.50;98983.75;5066226;28;20037;-77
2021/12/19 12:27:51;;;;;;;1.02;0.85;;;;;;;-3.29;88.29;98989.13;5055262;28;20047;-77
2021/12/19 12:30:27;;;;;;;1.38;0.85;;;;;;;-3.35;88.27;99001.56;5061265;28;20135;-78
2021/12/19 12:32:54;;;;;;;1.35;1.00;;;;;;;-3.37;88.26;98998.31;5063972;28;20044;-77
2021/12/19 12:35:21;;;;;;;1.67;0.80;;;;;;;-3.37;88.33;99007.16;5019614;28;20522;-77
2021/12/19 12:37:48;;;;;;;0.73;0.60;;;;;;;-3.35;88.42;99023.84;5048875;28;20048;-77
2021/12/19 12:43:13;;;;;;;;;;;;;;;-3.38;88.47;99021.63;5054814;28;20100;-78
2021/12/19 12:45:52;;;;;;;0.93;0.73;;;;;;;-3.39;88.74;99022.66;5066972;28;19998;-77
2021/12/19 12:48:30;;;;;;;1.88;0.98;;;;;;;-3.43;88.87;99018.81;5034118;28;20429;-78
2021/12/19 12:50:56;;;;;;;1.17;0.75;;;;;;;-3.44;88.99;99030.59;5058135;28;20082;-77
2021/12/19 12:53:33;;;;;;;0.77;0.73;;;;;;;-3.43;89.13;99028.72;5007190;28;20123;-77
2021/12/19 12:56:08;;;;;;;1.30;1.00;;;;;;;-3.46;89.15;99021.97;5069038;28;20037;-77
2021/12/19 12:58:38;;;;;;;1.08;0.95;;;;;;;-3.46;89.28;99031.88;5063673;28;20058;-77